createdAt,value
2018-11-25T00:00:22.592Z,9.37
2018-11-25T00:01:03.169Z,9.35
2018-11-25T00:01:43.562Z,9.4
2018-11-25T00:02:23.870Z,9.48
2018-11-25T00:03:04.560Z,9.5
2018-11-25T00:03:44.990Z,9.48
2018-11-25T00:04:25.605Z,9.5
2018-11-25T00:05:05.836Z,9.41
2018-11-25T00:05:46.411Z,9.52
2018-11-25T00:06:27.194Z,9.53
2018-11-25T00:07:07.594Z,9.5
2018-11-25T00:07:47.972Z,9.52
2018-11-25T00:08:28.437Z,9.53
2018-11-25T00:09:08.912Z,9.59
2018-11-25T00:09:49.409Z,9.45
2018-11-25T00:10:29.734Z,9.34
2018-11-25T00:11:10.121Z,9.27
2018-11-25T00:11:50.653Z,9.23
2018-11-25T00:12:31.029Z,9.22
2018-11-25T00:13:11.468Z,9.26
2018-11-25T00:13:51.828Z,9.22
2018-11-25T00:14:32.172Z,9.26
2018-11-25T00:15:12.631Z,9.35
2018-11-25T00:15:52.949Z,9.34
2018-11-25T00:16:33.385Z,9.27
2018-11-25T00:17:13.707Z,9.32
2018-11-25T00:17:54.068Z,9.34
2018-11-25T00:18:34.501Z,9.3
2018-11-25T00:19:14.920Z,9.24
2018-11-25T00:19:55.227Z,9.27
2018-11-25T00:20:35.651Z,9.3
2018-11-25T00:21:16.063Z,9.31
2018-11-25T00:21:56.426Z,9.35
2018-11-25T00:22:36.904Z,9.22
2018-11-25T00:23:17.243Z,9.23
2018-11-25T00:23:57.703Z,9.27
2018-11-25T00:24:38.093Z,9.27
2018-11-25T00:25:18.534Z,9.37
2018-11-25T00:25:58.917Z,9.3
2018-11-25T00:26:39.339Z,9.38
2018-11-25T00:27:19.780Z,9.41
2018-11-25T00:28:00.180Z,9.41
2018-11-25T00:28:40.650Z,9.44
2018-11-25T00:29:21.066Z,9.48
2018-11-25T00:30:01.500Z,9.41
2018-11-25T00:30:41.781Z,9.42
2018-11-25T00:31:22.254Z,9.44
2018-11-25T00:32:02.763Z,9.42
2018-11-25T00:32:43.052Z,9.41
2018-11-25T00:33:23.463Z,9.27
2018-11-25T00:34:03.855Z,9.4
2018-11-25T00:34:44.279Z,9.41
2018-11-25T00:35:24.681Z,9.48
2018-11-25T00:36:05.171Z,9.45
2018-11-25T00:36:45.523Z,9.4
2018-11-25T00:37:25.934Z,9.37
2018-11-25T00:38:06.259Z,9.4
2018-11-25T00:38:46.665Z,9.41
2018-11-25T00:39:27.080Z,9.32
2018-11-25T00:40:07.510Z,9.34
2018-11-25T00:40:47.901Z,9.32
2018-11-25T00:41:28.308Z,9.32
2018-11-25T00:42:08.698Z,9.26
2018-11-25T00:42:49.107Z,9.2
2018-11-25T00:43:29.488Z,9.19
2018-11-25T00:44:09.830Z,9.24
2018-11-25T00:44:50.374Z,9.19
2018-11-25T00:45:30.748Z,9.23
2018-11-25T00:46:11.118Z,9.16
2018-11-25T00:46:51.464Z,9.13
2018-11-25T00:47:31.936Z,9.13
2018-11-25T00:48:12.309Z,9.06
2018-11-25T00:48:52.762Z,9.16
2018-11-25T00:49:33.149Z,9.19
2018-11-25T00:50:13.571Z,9.12
2018-11-25T00:50:53.992Z,9.04
2018-11-25T00:51:34.388Z,9.08
2018-11-25T00:52:14.852Z,9.15
2018-11-25T00:52:55.213Z,9.06
2018-11-25T00:53:35.602Z,9.13
2018-11-25T00:54:16.037Z,9.1
2018-11-25T00:54:56.380Z,9.06
2018-11-25T00:55:36.831Z,9.13
2018-11-25T00:56:17.198Z,9.12
2018-11-25T00:56:57.590Z,9.1
2018-11-25T00:57:37.983Z,9.2
2018-11-25T00:58:18.466Z,9.2
2018-11-25T00:58:58.826Z,9.3
2018-11-25T00:59:39.165Z,9.27
2018-11-25T01:00:19.529Z,9.2
2018-11-25T01:00:59.957Z,9.19
2018-11-25T01:01:40.386Z,9.15
2018-11-25T01:02:20.724Z,9.13
2018-11-25T01:03:01.175Z,9.06
2018-11-25T01:03:41.563Z,9.13
2018-11-25T01:04:21.911Z,9.04
2018-11-25T01:05:02.241Z,8.91
2018-11-25T01:05:42.701Z,8.97
2018-11-25T01:06:23.045Z,8.96
2018-11-25T01:07:03.485Z,9
2018-11-25T01:07:43.912Z,9.1
2018-11-25T01:08:24.220Z,9.08
2018-11-25T01:09:04.679Z,9.08
2018-11-25T01:09:44.977Z,9.12
2018-11-25T01:10:25.446Z,9.13
2018-11-25T01:11:05.780Z,9.01
2018-11-25T01:11:46.230Z,9.1
2018-11-25T01:12:26.583Z,8.94
2018-11-25T01:13:07.082Z,8.94
2018-11-25T01:13:47.452Z,8.89
2018-11-25T01:14:27.867Z,8.83
2018-11-25T01:15:08.238Z,8.76
2018-11-25T01:15:48.671Z,8.78
2018-11-25T01:16:29.052Z,8.8
2018-11-25T01:17:09.478Z,8.79
2018-11-25T01:17:49.851Z,8.71
2018-11-25T01:18:30.275Z,8.65
2018-11-25T01:19:10.692Z,8.64
2018-11-25T01:19:51.074Z,8.6
2018-11-25T01:20:31.435Z,8.63
2018-11-25T01:21:11.941Z,8.54
2018-11-25T01:21:52.285Z,8.55
2018-11-25T01:22:32.661Z,8.6
2018-11-25T01:23:13.028Z,8.61
2018-11-25T01:23:53.450Z,8.54
2018-11-25T01:24:33.809Z,8.58
2018-11-25T01:25:14.332Z,8.65
2018-11-25T01:25:54.658Z,8.68
2018-11-25T01:26:35.007Z,8.82
2018-11-25T01:27:15.485Z,8.73
2018-11-25T01:27:55.803Z,8.8
2018-11-25T01:28:36.283Z,8.76
2018-11-25T01:29:16.591Z,8.78
2018-11-25T01:29:56.978Z,8.82
2018-11-25T01:30:37.358Z,8.78
2018-11-25T01:31:17.707Z,8.79
2018-11-25T01:31:58.199Z,8.76
2018-11-25T01:32:38.591Z,8.78
2018-11-25T01:33:19.005Z,8.82
2018-11-25T01:33:59.372Z,8.76
2018-11-25T01:34:39.825Z,8.76
2018-11-25T01:35:20.197Z,8.75
2018-11-25T01:36:00.733Z,8.79
2018-11-25T01:36:41.080Z,8.79
2018-11-25T01:37:21.427Z,8.78
2018-11-25T01:38:01.815Z,8.75
2018-11-25T01:38:42.225Z,8.73
2018-11-25T01:39:22.603Z,8.78
2018-11-25T01:40:02.981Z,8.83
2018-11-25T01:40:43.443Z,8.73
2018-11-25T01:41:23.793Z,8.79
2018-11-25T01:42:04.107Z,8.83
2018-11-25T01:42:44.567Z,8.73
2018-11-25T01:43:24.997Z,8.73
2018-11-25T01:44:05.382Z,8.79
2018-11-25T01:44:45.804Z,8.82
2018-11-25T01:45:26.179Z,8.82
2018-11-25T01:46:06.604Z,8.78
2018-11-25T01:46:47.029Z,8.73
2018-11-25T01:47:27.431Z,8.76
2018-11-25T01:48:07.821Z,8.8
2018-11-25T01:48:48.261Z,8.67
2018-11-25T01:49:28.645Z,8.71
2018-11-25T01:50:09.085Z,8.64
2018-11-25T01:50:49.494Z,8.6
2018-11-25T01:51:29.969Z,8.49
2018-11-25T01:52:10.391Z,8.57
2018-11-25T01:52:50.793Z,8.46
2018-11-25T01:53:31.118Z,8.52
2018-11-25T01:54:11.567Z,8.61
2018-11-25T01:54:52.040Z,8.54
2018-11-25T01:55:32.381Z,8.57
2018-11-25T01:56:12.795Z,8.54
2018-11-25T01:56:53.142Z,8.61
2018-11-25T01:57:33.627Z,8.54
2018-11-25T01:58:14.004Z,8.49
2018-11-25T01:58:54.435Z,8.47
2018-11-25T01:59:34.848Z,8.52
2018-11-25T02:00:15.362Z,8.46
2018-11-25T02:00:55.626Z,8.46
2018-11-25T02:01:36.122Z,8.49
2018-11-25T02:02:16.534Z,8.39
2018-11-25T02:02:56.947Z,8.39
2018-11-25T02:03:37.398Z,8.34
2018-11-25T02:04:17.723Z,8.34
2018-11-25T02:04:58.130Z,8.29
2018-11-25T02:05:38.472Z,8.34
2018-11-25T02:06:19.053Z,8.29
2018-11-25T02:06:59.361Z,8.29
2018-11-25T02:07:39.640Z,8.22
2018-11-25T02:08:20.209Z,8.29
2018-11-25T02:09:00.430Z,8.18
2018-11-25T02:09:40.980Z,8.17
2018-11-25T02:10:21.525Z,8.12
2018-11-25T02:11:01.835Z,8.17
2018-11-25T02:11:42.170Z,8.13
2018-11-25T02:12:22.606Z,8.18
2018-11-25T02:13:03.068Z,8.1
2018-11-25T02:13:43.415Z,8.07
2018-11-25T02:14:23.879Z,7.94
2018-11-25T02:15:04.225Z,7.94
2018-11-25T02:15:44.595Z,7.99
2018-11-25T02:16:24.943Z,7.96
2018-11-25T02:17:05.578Z,7.95
2018-11-25T02:17:46.019Z,7.94
2018-11-25T02:18:26.458Z,7.96
2018-11-25T02:19:07.013Z,7.91
2018-11-25T02:19:47.299Z,7.95
2018-11-25T02:20:27.757Z,7.99
2018-11-25T02:21:08.140Z,8.02
2018-11-25T02:21:48.498Z,8.02
2018-11-25T02:22:29.102Z,8.03
2018-11-25T02:23:09.316Z,8.03
2018-11-25T02:23:49.780Z,8
2018-11-25T02:24:30.211Z,8
2018-11-25T02:25:10.572Z,8
2018-11-25T02:25:51.283Z,8.06
2018-11-25T02:26:31.735Z,8.06
2018-11-25T02:27:12.124Z,8.02
2018-11-25T02:27:52.566Z,8.06
2018-11-25T02:28:32.958Z,7.94
2018-11-25T02:29:13.344Z,7.92
2018-11-25T02:29:53.772Z,8
2018-11-25T02:30:34.119Z,7.95
2018-11-25T02:31:14.560Z,8
2018-11-25T02:31:55.042Z,8.02
2018-11-25T02:32:35.402Z,8.02
2018-11-25T02:33:15.920Z,8
2018-11-25T02:33:56.421Z,8.02
2018-11-25T02:34:36.764Z,7.99
2018-11-25T02:35:17.073Z,8.02
2018-11-25T02:35:57.487Z,7.99
2018-11-25T02:36:38.010Z,8.04
2018-11-25T02:37:18.384Z,8.07
2018-11-25T02:37:58.779Z,8.21
2018-11-25T02:38:39.173Z,8.31
2018-11-25T02:39:19.584Z,8.31
2018-11-25T02:39:59.997Z,8.37
2018-11-25T02:40:40.355Z,8.36
2018-11-25T02:41:20.802Z,8.39
2018-11-25T02:42:01.220Z,8.43
2018-11-25T02:42:41.692Z,8.37
2018-11-25T02:43:22.039Z,8.29
2018-11-25T02:44:02.442Z,8.29
2018-11-25T02:44:42.813Z,8.37
2018-11-25T02:45:23.281Z,8.42
2018-11-25T02:46:03.664Z,8.45
2018-11-25T02:46:44.043Z,8.36
2018-11-25T02:47:24.506Z,8.42
2018-11-25T02:48:04.957Z,8.39
2018-11-25T02:48:45.356Z,8.42
2018-11-25T02:49:25.729Z,8.37
2018-11-25T02:50:06.174Z,8.46
2018-11-25T02:50:46.487Z,8.52
2018-11-25T02:51:26.982Z,8.47
2018-11-25T02:52:07.239Z,8.49
2018-11-25T02:52:47.725Z,8.46
2018-11-25T02:53:28.072Z,8.43
2018-11-25T02:54:08.501Z,8.54
2018-11-25T02:54:48.893Z,8.79
2018-11-25T02:55:29.272Z,8.96
2018-11-25T02:56:09.742Z,9.03
2018-11-25T02:56:50.151Z,9.06
2018-11-25T02:57:30.627Z,9.2
2018-11-25T02:58:11.057Z,9.31
2018-11-25T02:58:51.449Z,9.23
2018-11-25T02:59:31.844Z,9.34
2018-11-25T03:00:12.293Z,9.3
2018-11-25T03:00:52.668Z,9.22
2018-11-25T03:01:33.192Z,9.23
2018-11-25T03:02:13.473Z,9.26
2018-11-25T03:02:53.905Z,9.3
2018-11-25T03:03:34.285Z,9.34
2018-11-25T03:04:14.629Z,9.5
2018-11-25T03:04:55.075Z,9.49
2018-11-25T03:05:35.628Z,9.6
2018-11-25T03:06:15.989Z,9.7
2018-11-25T03:06:56.360Z,9.65
2018-11-25T03:07:36.873Z,9.74
2018-11-25T03:08:17.217Z,9.68
2018-11-25T03:08:57.580Z,9.7
2018-11-25T03:09:37.946Z,9.83
2018-11-25T03:10:18.441Z,9.83
2018-11-25T03:10:58.906Z,9.74
2018-11-25T03:11:39.188Z,9.74
2018-11-25T03:12:19.675Z,9.75
2018-11-25T03:13:00.066Z,9.78
2018-11-25T03:13:40.579Z,9.85
2018-11-25T03:14:20.894Z,9.96
2018-11-25T03:15:01.305Z,9.95
2018-11-25T03:15:41.708Z,9.91
2018-11-25T03:16:22.116Z,9.78
2018-11-25T03:17:02.532Z,9.7
2018-11-25T03:17:42.960Z,9.62
2018-11-25T03:18:23.329Z,9.6
2018-11-25T03:19:04.576Z,9.5
2018-11-25T03:19:45.038Z,9.44
2018-11-25T03:20:25.439Z,9.49
2018-11-25T03:21:05.948Z,9.4
2018-11-25T03:21:46.715Z,9.34
2018-11-25T03:22:26.964Z,9.34
2018-11-25T03:23:07.370Z,9.27
2018-11-25T03:23:47.774Z,9.27
2018-11-25T03:24:28.217Z,9.22
2018-11-25T03:25:08.685Z,9.26
2018-11-25T03:25:49.041Z,9.23
2018-11-25T03:26:29.391Z,9.22
2018-11-25T03:27:09.908Z,9.15
2018-11-25T03:27:50.319Z,9.13
2018-11-25T03:28:30.769Z,9.13
2018-11-25T03:29:11.144Z,9.1
2018-11-25T03:29:51.746Z,8.96
2018-11-25T03:30:32.331Z,8.93
2018-11-25T03:31:12.673Z,8.78
2018-11-25T03:31:53.226Z,8.75
2018-11-25T03:32:33.549Z,8.76
2018-11-25T03:33:14.023Z,8.76
2018-11-25T03:33:54.578Z,8.71
2018-11-25T03:34:34.951Z,8.75
2018-11-25T03:35:15.264Z,8.75
2018-11-25T03:35:55.827Z,8.79
2018-11-25T03:36:36.410Z,8.78
2018-11-25T03:37:16.687Z,8.73
2018-11-25T03:37:57.104Z,8.71
2018-11-25T03:38:37.639Z,8.78
2018-11-25T03:39:18.125Z,8.76
2018-11-25T03:39:58.566Z,8.86
2018-11-25T03:40:38.945Z,8.89
2018-11-25T03:41:19.432Z,8.94
2018-11-25T03:41:59.892Z,8.93
2018-11-25T03:42:40.266Z,9.01
2018-11-25T03:43:20.697Z,9.04
2018-11-25T03:44:00.998Z,9.22
2018-11-25T03:44:41.410Z,9.23
2018-11-25T03:45:21.878Z,9.31
2018-11-25T03:46:02.230Z,9.3
2018-11-25T03:46:42.715Z,9.27
2018-11-25T03:47:23.181Z,9.22
2018-11-25T03:48:03.707Z,9.04
2018-11-25T03:48:44.194Z,9.1
2018-11-25T03:49:24.556Z,9.08
2018-11-25T03:50:04.980Z,9.2
2018-11-25T03:50:45.579Z,9.27
2018-11-25T03:51:26.024Z,9.35
2018-11-25T03:52:06.454Z,9.42
2018-11-25T03:52:46.893Z,9.49
2018-11-25T03:53:27.335Z,9.67
2018-11-25T03:54:07.910Z,9.62
2018-11-25T03:54:48.247Z,9.68
2018-11-25T03:55:28.667Z,9.7
2018-11-25T03:56:09.050Z,9.77
2018-11-25T03:56:49.459Z,9.91
2018-11-25T03:57:29.935Z,9.78
2018-11-25T03:58:10.435Z,9.75
2018-11-25T03:58:50.856Z,9.83
2018-11-25T03:59:31.274Z,9.8
2018-11-25T04:00:11.809Z,9.86
2018-11-25T04:00:52.665Z,9.96
2018-11-25T04:01:33.060Z,9.98
2018-11-25T04:02:13.582Z,10.02
2018-11-25T04:02:53.924Z,9.96
2018-11-25T04:03:34.365Z,10.01
2018-11-25T04:04:14.805Z,9.91
2018-11-25T04:04:55.382Z,9.99
2018-11-25T04:05:35.765Z,10.09
2018-11-25T04:06:16.283Z,10.02
2018-11-25T04:06:56.685Z,10.1
2018-11-25T04:07:37.173Z,10.13
2018-11-25T04:08:17.616Z,10.2
2018-11-25T04:08:58.174Z,10.2
2018-11-25T04:09:38.408Z,10.22
2018-11-25T04:10:18.919Z,10.29
2018-11-25T04:10:59.339Z,10.28
2018-11-25T04:11:39.913Z,10.17
2018-11-25T04:12:20.282Z,10.24
2018-11-25T04:13:01.430Z,10.29
2018-11-25T04:13:41.971Z,10.25
2018-11-25T04:14:22.379Z,10.26
2018-11-25T04:15:02.842Z,10.26
2018-11-25T04:15:43.141Z,10.2
2018-11-25T04:16:23.769Z,10.18
2018-11-25T04:17:04.188Z,10.14
2018-11-25T04:17:44.469Z,9.99
2018-11-25T04:18:25.048Z,9.93
2018-11-25T04:19:05.518Z,9.85
2018-11-25T04:19:45.978Z,9.85
2018-11-25T04:20:26.599Z,9.65
2018-11-25T04:21:06.981Z,9.65
2018-11-25T04:21:47.342Z,9.55
2018-11-25T04:22:27.723Z,9.53
2018-11-25T04:23:08.315Z,9.48
2018-11-25T04:23:48.610Z,9.41
2018-11-25T04:24:29.330Z,9.35
2018-11-25T04:25:09.792Z,9.4
2018-11-25T04:25:50.210Z,9.35
2018-11-25T04:26:30.687Z,9.34
2018-11-25T04:27:10.990Z,9.3
2018-11-25T05:06:27.203Z,7.62
2018-11-25T05:07:14.758Z,7.62
2018-11-25T05:07:52.924Z,7.47
2018-11-25T05:08:33.243Z,7.55
2018-11-25T05:09:13.641Z,7.55
2018-11-25T05:09:54.033Z,7.47
2018-11-25T05:10:34.414Z,7.48
2018-11-25T05:11:14.781Z,7.5
2018-11-25T05:11:55.178Z,7.45
2018-11-25T05:12:36.502Z,7.58
2018-11-25T05:13:16.876Z,7.54
2018-11-25T05:13:57.243Z,7.47
2018-11-25T05:14:37.582Z,7.48
2018-11-25T05:15:18.045Z,7.42
2018-11-25T05:15:58.392Z,7.55
2018-11-25T05:16:38.831Z,7.55
2018-11-25T05:17:19.217Z,7.63
2018-11-25T05:17:59.595Z,7.7
2018-11-25T05:18:40.021Z,7.58
2018-11-25T05:19:20.272Z,7.76
2018-11-25T05:20:00.771Z,7.81
2018-11-25T05:20:41.100Z,7.81
2018-11-25T05:21:21.557Z,7.84
2018-11-25T05:22:01.932Z,7.81
2018-11-25T05:22:42.300Z,7.84
2018-11-25T05:23:22.697Z,7.74
2018-11-25T05:24:03.059Z,7.84
2018-11-25T05:24:43.451Z,7.79
2018-11-25T05:25:23.896Z,7.95
2018-11-25T05:26:04.236Z,7.94
2018-11-25T05:26:44.773Z,8.02
2018-11-25T05:27:25.120Z,8.13
2018-11-25T05:28:05.588Z,8.17
2018-11-25T05:28:45.930Z,8.21
2018-11-25T05:29:26.291Z,8.36
2018-11-25T05:30:06.719Z,8.32
2018-11-25T05:30:47.075Z,8.39
2018-11-25T05:31:27.458Z,8.4
2018-11-25T05:33:24.446Z,8.55
2018-11-25T05:34:04.181Z,8.54
2018-11-25T05:34:44.560Z,8.58
2018-11-25T05:35:25.038Z,8.47
2018-11-25T05:36:05.341Z,8.46
2018-11-25T05:36:45.769Z,8.37
2018-11-25T05:37:26.158Z,8.39
2018-11-25T05:38:06.591Z,8.37
2018-11-25T05:38:46.968Z,8.45
2018-11-25T05:39:27.358Z,8.49
2018-11-25T05:40:07.841Z,8.61
2018-11-25T05:40:48.181Z,8.68
2018-11-25T05:41:28.659Z,8.78
2018-11-25T05:42:09.040Z,8.91
2018-11-25T05:42:49.554Z,8.98
2018-11-25T05:43:29.874Z,9.04
2018-11-25T05:44:10.348Z,9.26
2018-11-25T05:44:50.654Z,9.32
2018-11-25T05:45:31.074Z,9.42
2018-11-25T05:47:27.709Z,9.77
2018-11-25T05:48:22.825Z,9.85
2018-11-25T05:49:19.317Z,9.98
2018-11-25T05:50:11.720Z,9.98
2018-11-25T05:51:04.461Z,10.02
2018-11-25T05:51:57.061Z,10.16
2018-11-25T05:52:49.560Z,10.22
2018-11-25T05:53:43.146Z,10.18
2018-11-25T05:54:35.444Z,10.22
2018-11-25T05:55:27.864Z,10.22
2018-11-25T05:56:20.821Z,10.2
2018-11-25T05:57:13.280Z,10.2
2018-11-25T05:58:07.087Z,10.22
2018-11-25T05:59:00.809Z,10.36
2018-11-25T05:59:54.469Z,10.32
2018-11-25T06:00:46.366Z,10.35
2018-11-25T06:01:39.031Z,10.32
2018-11-25T06:02:31.186Z,10.47
2018-11-25T06:03:23.387Z,10.42
2018-11-25T06:04:15.976Z,10.51
2018-11-25T06:05:11.391Z,10.6
2018-11-25T06:06:03.720Z,10.54
2018-11-25T06:06:55.863Z,10.55
2018-11-25T06:07:51.554Z,10.54
2018-11-25T06:08:44.340Z,10.55
2018-11-25T06:09:36.870Z,10.55
2018-11-25T06:10:32.719Z,10.6
2018-11-25T06:11:25.271Z,10.55
2018-11-25T06:12:17.732Z,10.55
2018-11-25T06:13:12.369Z,10.66
2018-11-25T06:14:05.976Z,10.63
2018-11-25T06:14:58.449Z,10.66
2018-11-25T06:15:52.562Z,10.68
2018-11-25T06:16:47.286Z,10.55
2018-11-25T06:17:42.460Z,10.55
2018-11-25T06:18:35.359Z,10.35
2018-11-25T06:19:28.441Z,10.38
2018-11-25T06:20:20.714Z,10.35
2018-11-25T06:21:14.177Z,10.24
2018-11-25T06:22:06.991Z,10.25
2018-11-25T06:23:00.721Z,10.25
2018-11-25T06:23:53.956Z,10.17
2018-11-25T06:24:47.118Z,10.07
2018-11-25T06:25:43.236Z,10.02
2018-11-25T06:26:37.263Z,9.88
2018-11-25T06:27:30.502Z,9.78
2018-11-25T06:28:23.931Z,9.6
2018-11-25T06:29:18.371Z,9.62
2018-11-25T06:30:11.332Z,9.45
2018-11-25T06:31:04.639Z,9.56
2018-11-25T06:31:57.824Z,9.6
2018-11-25T06:32:51.752Z,9.59
2018-11-25T06:33:48.014Z,9.59
2018-11-25T06:34:41.085Z,9.55
2018-11-25T06:35:34.232Z,9.49
2018-11-25T06:36:28.887Z,9.42
2018-11-25T06:37:22.424Z,9.26
2018-11-25T06:38:15.941Z,9.3
2018-11-25T06:39:08.874Z,9.23
2018-11-25T06:40:02.608Z,9.23
2018-11-25T06:40:55.290Z,9.19
2018-11-25T06:41:47.891Z,9.1
2018-11-25T06:42:42.068Z,9.08
2018-11-25T06:43:35.691Z,9.03
2018-11-25T06:44:28.259Z,8.91
2018-11-25T06:45:21.252Z,8.89
2018-11-25T06:46:14.236Z,8.85
2018-11-25T06:47:07.438Z,8.94
2018-11-25T06:48:01.708Z,8.98
2018-11-25T06:48:55.479Z,8.96
2018-11-25T06:49:48.122Z,9.12
2018-11-25T06:50:41.980Z,9.16
2018-11-25T06:51:34.372Z,9.16
2018-11-25T06:52:27.443Z,9.37
2018-11-25T06:53:20.213Z,9.32
2018-11-25T06:54:14.841Z,9.55
2018-11-25T06:55:08.826Z,9.52
2018-11-25T06:56:02.235Z,9.7
2018-11-25T06:56:54.616Z,9.74
2018-11-25T06:57:47.247Z,9.95
2018-11-25T06:58:39.866Z,10.07
2018-11-25T06:59:32.974Z,10.17
2018-11-25T07:00:27.193Z,10.11
2018-11-25T07:01:20.283Z,10.14
2018-11-25T07:02:13.794Z,10.11
2018-11-25T07:03:07.262Z,10.18
2018-11-25T07:04:00.508Z,10.13
2018-11-25T07:04:54.293Z,10.11
2018-11-25T07:05:47.110Z,10.18
2018-11-25T07:06:40.213Z,10.17
2018-11-25T07:07:32.877Z,10.11
2018-11-25T07:08:25.660Z,10.07
2018-11-25T07:09:15.830Z,10.11
2018-11-25T07:09:56.519Z,10.04
2018-11-25T07:10:37.554Z,10.09
2018-11-25T07:11:18.577Z,10.02
2018-11-25T07:12:00.170Z,10.13
2018-11-25T07:12:41.130Z,10.06
2018-11-25T07:13:22.609Z,10.02
2018-11-25T07:14:03.450Z,10.04
2018-11-25T07:14:46.076Z,10.13
2018-11-25T07:15:26.913Z,10.04
2018-11-25T07:16:08.396Z,10.01
2018-11-25T07:16:50.596Z,9.95
2018-11-25T07:17:31.720Z,9.95
2018-11-25T07:18:15.555Z,9.85
2018-11-25T07:18:57.856Z,9.89
2018-11-25T07:19:41.650Z,9.74
2018-11-25T07:20:23.633Z,9.67
2018-11-25T07:21:04.617Z,9.6
2018-11-25T07:21:46.636Z,9.52
2018-11-25T07:22:28.659Z,9.45
2018-11-25T07:23:08.955Z,9.32
2018-11-25T07:23:50.061Z,9.32
2018-11-25T07:25:46.334Z,9.22
2018-11-25T07:26:40.276Z,9.24
2018-11-25T07:27:35.302Z,9.16
2018-11-25T07:28:29.745Z,9.2
2018-11-25T07:29:29.588Z,9.15
2018-11-25T07:30:24.083Z,9.01
2018-11-25T07:31:18.264Z,8.94
2018-11-25T07:32:14.874Z,8.91
2018-11-25T07:33:10.335Z,8.79
2018-11-25T07:34:05.936Z,8.71
2018-11-25T07:34:58.936Z,8.67
2018-11-25T07:35:51.356Z,8.78
2018-11-25T07:36:44.520Z,8.85
2018-11-25T07:38:43.141Z,8.79
2018-11-25T07:39:28.237Z,8.8
2018-11-25T07:40:08.942Z,8.73
2018-11-25T07:40:49.674Z,8.67
2018-11-25T07:41:30.008Z,8.75
2018-11-25T07:42:10.343Z,8.88
2018-11-25T07:42:50.767Z,8.82
2018-11-25T07:43:31.142Z,8.88
2018-11-25T07:44:11.501Z,8.97
2018-11-25T07:44:51.918Z,8.94
2018-11-25T07:45:32.292Z,8.89
2018-11-25T07:46:12.704Z,9.1
2018-11-25T07:46:53.259Z,8.93
2018-11-25T07:47:33.551Z,8.86
2018-11-25T07:48:13.968Z,8.82
2018-11-25T07:48:54.333Z,8.89
2018-11-25T07:49:35.053Z,8.89
2018-11-25T07:50:15.314Z,8.88
2018-11-25T07:50:55.701Z,8.94
2018-11-25T07:51:36.442Z,8.91
2018-11-25T07:52:16.594Z,8.89
2018-11-25T07:52:56.963Z,8.85
2018-11-25T07:53:37.485Z,8.8
2018-11-25T07:54:17.897Z,8.76
2018-11-25T07:54:58.258Z,8.76
2018-11-25T07:55:38.708Z,8.73
2018-11-25T07:56:20.658Z,8.79
2018-11-25T07:57:01.410Z,8.94
2018-11-25T07:57:42.776Z,8.94
2018-11-25T07:58:22.390Z,8.88
2018-11-25T07:59:02.787Z,8.91
2018-11-25T07:59:43.241Z,8.98
2018-11-25T08:00:23.698Z,9.12
2018-11-25T08:01:04.050Z,9.04
2018-11-25T08:01:44.492Z,9.1
2018-11-25T08:02:25.758Z,9.12
2018-11-25T08:03:06.118Z,9.12
2018-11-25T08:03:46.508Z,9.16
2018-11-25T08:04:26.915Z,9.16
2018-11-25T08:05:07.340Z,9.23
2018-11-25T08:05:47.850Z,9.16
2018-11-25T08:06:28.771Z,9.22
2018-11-25T08:07:09.046Z,9.19
2018-11-25T08:07:49.437Z,9.27
2018-11-25T08:08:29.823Z,9.24
2018-11-25T08:09:10.263Z,9.37
2018-11-25T08:09:50.633Z,9.37
2018-11-25T08:10:31.048Z,9.37
2018-11-25T08:11:11.479Z,9.41
2018-11-25T08:11:51.893Z,9.53
2018-11-25T08:12:32.290Z,9.55
2018-11-25T08:13:12.780Z,9.5
2018-11-25T08:13:53.060Z,9.52
2018-11-25T08:14:33.460Z,9.56
2018-11-25T08:15:14.735Z,9.59
2018-11-25T08:15:55.142Z,9.71
2018-11-25T08:16:35.532Z,9.71
2018-11-25T08:17:16.679Z,9.71
2018-11-25T08:17:57.096Z,9.68
2018-11-25T08:18:37.489Z,9.67
2018-11-25T08:19:17.938Z,9.7
2018-11-25T08:19:58.356Z,9.78
2018-11-25T08:20:38.816Z,9.67
2018-11-25T08:21:19.144Z,9.62
2018-11-25T08:21:59.530Z,9.71
2018-11-25T08:23:50.773Z,9.67
2018-11-25T08:24:43.227Z,9.71
2018-11-25T08:25:36.300Z,9.63
2018-11-25T08:26:30.337Z,9.62
2018-11-25T08:27:22.865Z,9.68
2018-11-25T08:28:19.211Z,9.73
2018-11-25T08:29:16.434Z,9.71
2018-11-25T08:30:08.732Z,9.8
2018-11-25T08:31:02.147Z,9.8
2018-11-25T08:31:54.764Z,9.89
2018-11-25T08:32:47.698Z,9.77
2018-11-25T08:33:41.168Z,9.86
2018-11-25T08:34:35.844Z,9.93
2018-11-25T08:35:31.784Z,10.02
2018-11-25T08:36:27.553Z,10.1
2018-11-25T08:37:20.920Z,10.13
2018-11-25T08:38:15.077Z,10.14
2018-11-25T08:39:10.201Z,10.16
2018-11-25T08:40:04.096Z,10.22
2018-11-25T08:41:00.208Z,10.26
2018-11-25T08:41:55.710Z,10.32
2018-11-25T08:42:57.530Z,10.39
2018-11-25T08:43:55.522Z,10.31
2018-11-25T08:44:49.687Z,10.2
2018-11-25T08:45:43.789Z,10.18
2018-11-25T08:46:38.434Z,10.11
2018-11-25T08:47:32.778Z,10.04
2018-11-25T08:48:25.890Z,10.06
2018-11-25T08:49:25.057Z,9.95
2018-11-25T08:50:19.050Z,9.99
2018-11-25T08:51:13.015Z,10.11
2018-11-25T08:52:06.719Z,10.24
2018-11-25T08:53:02.759Z,10.22
2018-11-25T08:54:09.599Z,10.35
2018-11-25T08:55:03.616Z,10.29
2018-11-25T08:55:56.251Z,10.35
2018-11-25T08:56:50.501Z,10.38
2018-11-25T08:57:44.166Z,10.51
2018-11-25T08:58:45.688Z,10.46
2018-11-25T08:59:43.536Z,10.47
2018-11-25T09:00:38.989Z,10.51
2018-11-25T09:02:42.567Z,10.38
2018-11-25T09:03:47.174Z,10.24
2018-11-25T09:04:45.795Z,10.16
2018-11-25T09:05:43.573Z,10.06
2018-11-25T09:12:02.913Z,9.73
2018-11-25T09:12:57.646Z,9.62
2018-11-25T09:13:51.033Z,9.52
2018-11-25T09:14:47.578Z,9.52
2018-11-25T09:15:39.897Z,9.67
2018-11-25T09:16:33.532Z,9.7
2018-11-25T09:17:28.380Z,9.67
2018-11-25T09:18:23.924Z,9.68
2018-11-25T09:19:19.741Z,9.67
2018-11-25T09:20:13.326Z,9.45
2018-11-25T09:21:06.025Z,9.6
2018-11-25T09:22:01.943Z,9.59
2018-11-25T09:22:57.846Z,9.56
2018-11-25T09:23:51.947Z,9.52
2018-11-25T09:24:44.507Z,9.53
2018-11-25T09:25:38.836Z,9.6
2018-11-25T09:26:34.183Z,9.71
2018-11-25T09:27:26.547Z,9.68
2018-11-25T09:28:19.920Z,9.67
2018-11-25T09:29:13.416Z,9.68
2018-11-25T09:30:07.278Z,9.58
2018-11-25T09:31:01.092Z,9.6
2018-11-25T09:31:55.512Z,9.65
2018-11-25T09:32:48.273Z,9.67
2018-11-25T09:33:43.610Z,9.59
2018-11-25T09:34:37.844Z,9.7
2018-11-25T09:35:37.693Z,9.67
2018-11-25T09:36:30.790Z,9.67
2018-11-25T09:37:30.553Z,9.68
2018-11-25T09:38:23.382Z,9.63
2018-11-25T09:39:18.277Z,9.62
2018-11-25T09:40:22.882Z,9.7
2018-11-25T09:41:18.525Z,9.71
2018-11-25T09:42:21.690Z,9.74
2018-11-25T09:43:19.480Z,9.77
2018-11-25T09:44:15.339Z,9.77
2018-11-25T09:45:12.168Z,9.78
2018-11-25T09:46:50.579Z,9.73
2018-11-25T09:47:33.602Z,9.68
2018-11-25T09:48:13.963Z,9.71
2018-11-25T09:48:54.387Z,9.67
2018-11-25T09:49:34.786Z,9.68
2018-11-25T09:50:15.185Z,9.63
2018-11-25T09:50:55.571Z,9.59
2018-11-25T09:51:36.005Z,9.41
2018-11-25T09:52:16.389Z,9.45
2018-11-25T09:52:56.772Z,9.49
2018-11-25T09:53:37.174Z,9.4
2018-11-25T09:54:17.598Z,9.45
2018-11-25T09:56:10.199Z,9.48
2018-11-25T09:59:39.216Z,9.58
2018-11-25T10:00:21.865Z,9.52
2018-11-25T10:01:02.217Z,9.42
2018-11-25T10:01:42.646Z,9.35
2018-11-25T10:02:23.050Z,9.37
2018-11-25T10:03:03.404Z,9.32
2018-11-25T10:03:43.856Z,9.38
2018-11-25T10:04:24.249Z,9.4
2018-11-25T10:05:04.627Z,9.38
2018-11-25T10:05:45.007Z,9.5
2018-11-25T10:06:25.459Z,9.63
2018-11-25T10:07:05.825Z,9.63
2018-11-25T10:07:46.228Z,9.68
2018-11-25T10:08:26.654Z,9.65
2018-11-25T10:09:07.065Z,9.67
2018-11-25T10:09:47.511Z,9.67
2018-11-25T10:11:40.226Z,9.68
2018-11-25T10:12:20.363Z,9.73
2018-11-25T10:13:00.735Z,9.7
2018-11-25T10:13:41.146Z,9.73
2018-11-25T10:14:21.538Z,9.68
2018-11-25T10:15:01.946Z,9.71
2018-11-25T10:15:42.392Z,9.68
2018-11-25T10:16:22.753Z,9.75
2018-11-25T10:17:03.140Z,9.65
2018-11-25T10:17:43.559Z,9.68
2018-11-25T10:18:23.943Z,9.68
2018-11-25T10:20:13.178Z,9.68
2018-11-25T10:20:52.903Z,9.65
2018-11-25T10:21:33.305Z,9.7
2018-11-25T10:22:13.725Z,9.74
2018-11-25T10:22:54.109Z,9.78
2018-11-25T10:24:31.627Z,9.62
2018-11-25T10:25:11.828Z,9.6
2018-11-25T10:25:52.209Z,9.52
2018-11-25T10:26:32.605Z,9.63
2018-11-25T10:27:12.990Z,9.62
2018-11-25T10:27:53.378Z,9.42
2018-11-25T10:28:33.813Z,9.5
2018-11-25T11:09:28.317Z,9.1
2018-11-25T11:10:14.167Z,8.97
2018-11-25T11:10:54.092Z,8.96
2018-11-25T11:11:34.525Z,9
2018-11-25T11:12:14.946Z,8.93
2018-11-25T11:12:55.304Z,8.88
2018-11-25T11:13:35.788Z,8.8
2018-11-25T11:14:16.170Z,8.79
2018-11-25T11:14:56.581Z,8.86
2018-11-25T11:15:36.977Z,8.93
2018-11-25T11:16:17.383Z,8.91
2018-11-25T11:16:57.778Z,8.91
2018-11-25T11:17:38.173Z,8.86
2018-11-25T11:18:18.612Z,8.93
2018-11-25T11:18:58.993Z,8.91
2018-11-25T11:19:39.420Z,9.15
2018-11-25T11:20:19.799Z,9.23
2018-11-25T11:22:36.556Z,9.15
2018-11-25T11:23:16.843Z,9.27